My Meet Scores
Isabelle McNamara, Aspire Gymnastics Academy - MyMeetScores.com
Top100 | Top Teams | Upcoming Meets | Completed Meets | Latest | Add Scores | Help| Support | Bookmark and Share

Isabelle McNamara, Aspire Gymnastics Academy
Personal Bests
LevelVault BarsBeamFloorAA
39.3009.500 9.1259.25036.075
49.0509.350 9.5009.20036.350
59.5009.550 9.1259.40036.700
79.2259.650 9.0759.52536.975
Meet Scores
Date Meet Team Session Level Division Vault Bars Beam Floor AA
2020-02-21 Great Western Invitational - Women's Aspire Gymnastics Academy 03 7 Filly 9.225 5 9.325 11 9.075 14T 9.175 16 36.800 11
2020-01-24 Uga Invitational Aspire Gymnastics Academy 1A 7 Jr A 8.350 18 9.425 5 8.500 16 9.400 11T 35.675 13
2020-01-17 2020 Bravo Classic Aspire Gymnastics Academy 4B 7 Child 8.875 8 9.300 7 8.325 13 9.200 11 35.700 11
2020-01-03 2020 California Grand Invitational Aspire Gymnastics Academy L06 7 Junior A 8.300 14 8.150 10T 8.525 12 9.175 9T 34.150 11
2019-12-20 Aspire Classic - 2019 Aspire Gymnastics Academy 2B 7 Younger 8.800 12T 9.650 4T 9.000 16T 9.525 8T 36.975 8
2019-03-22 Illinois Gymnastics State Championships Aspire Gymnastics Academy 2 5 JR C 9.500 6 9.550 1 8.250 26T 9.400 6T 36.700 9
2019-03-08 Lucky Invite Aspire Gymnastics Academy A07 5 Jr A 9.325 1 9.250 4 9.000 6T 9.025 6 36.600 5
2019-02-23 Kinetic Classic 2019 Aspire Gymnastics Academy 1 5 Younger 8.600 10T 8.850 12 8.575 17 8.600 13T 34.625 13
2019-02-15 Big ClassicBIG CLASSIC Aspire Gymnastics Academy 5B 5 Child B 9.125 6 9.025 6 7.650 14T 8.725 9 34.525 9
2019-01-25 UGA Invitational Aspire Gymnastics Academy B11 5 Jr A 9.125 9T 9.000 7 9.050 7 8.850 12 36.025 9
2019-01-18 2019 Bravo Classic Aspire Gymnastics Academy 2A 5 Child 9.000 6T 8.250 23 9.125 14T 8.850 22T 35.225 21
2018-12-14 2018 Aspire Classic Aspire Gymnastics Academy 8A 5 Younger 9.450 2T 8.875 14 8.350 24 8.800 12 35.475 16
2018-12-07 St. Nick Invite 2018 Aspire Gymnastics Academy 1 5 JrA 9.150 6T 8.400 12 9.025 9T 8.775 8 35.350 8
2018-11-17 Paul Hamm Thanksgiving Class WOMENS Aspire Gymnastics Academy 5 5 Younger 8.925 9T 8.600 10 8.200 20 8.850 13 34.575 12
2018-03-08 Level 4 & 5 State Aspire Gymnastics Academy All 4 Ch F 9.050 6T 9.050 7 9.400 10T 8.450 26 35.950 13
2018-02-16 Big Classic Aspire Gymnastics Academy 2B 4 Child A 8.775 4 9.200 7 8.600 11T 9.100 10T 35.675 7
2018-01-26 2018 UGA Classic Aspire Gymnastics Academy B2 4 Jr A 8.475 6T 9.175 2 9.500 2 9.200 5T 36.350 4
2018-01-19 2018 Bravo Classic Aspire Gymnastics Academy 11B 4 Child 8.550 3 9.150 3 7.450 21 8.825 15 33.975 12
2017-12-15 2017 Aspire Classic Aspire Gymnastics Academy 3 4 Jr A 8.625 10 9.350 8 8.375 21 8.850 8T 35.200 9
2017-12-08 St. Nick Invite Aspire Gymnastics Academy 7A 4 JrA 8.475 20 8.350 16 8.900 12 8.525 16T 34.250 17
2017-11-16 Paul Hamm Thanksgiving Classic - Women Aspire Gymnastics Academy 7 4 Younger 8.250 22 9.325 13 8.600 23 8.675 19 34.850 18
2017-03-30 2017 Illinois Level 3 & 5 State Aspire Gymnastics Academy All 3 Yh A 9.225 14T 9.400 8T 8.650 22 8.800 19 36.075 16T
2017-02-24 Kinetic Classic Aspire Gymnastics Academy 4,5,6,7 3 All Ages 9.300 25T 9.200 32T 8.425 81T 8.800 70* 35.725 53T
2017-02-18 2017 Great Western Invitational Women's Aspire Gymnastics Academy 1 3 Filly 9.300 5 9.250 4 8.250 16 9.250 5 36.050 9
2017-01-27 2017 UGA Invitational Aspire Gymnastics Academy B7 3 Jr B 8.600 14 9.225 7T 9.125 7 9.050 9 36.000 8
2017-01-20 2017 Bravo Classic Aspire Gymnastics Academy 10B 3 8yrs 9.000 17T 9.500 3T 8.875 11 8.350 19T 35.725 13
2016-12-16 2016 Aspire Classic Aspire Gymnastics Academy 12 3 Middle 8.675 16 9.000 10 8.200 9T 8.850 9 34.725 11
2016-12-09 St. Nick Invite Aspire Gymnastics Academy 6 3 All 8.900 26T 8.800 13T 8.450 22T 8.900 16T 35.050 21
2016-11-19 Paul Hamm Thanksgiving Classic - 2016 Girls Aspire Gymnastics Academy 6 3 8-9 yrs 9.000 18T 9.000 14T 8.250 25 8.775 24T 35.025 21
Get your scores on
a t-shirt, pin, or hoodie

www.lazysuits.com